createdAt,value
2022-09-23T00:03:37.356Z,23.7
2022-09-23T00:08:55.620Z,23.7
2022-09-23T00:14:14.089Z,23.7
2022-09-23T00:19:32.290Z,23.7
2022-09-23T00:24:50.789Z,23.7
2022-09-23T00:30:08.966Z,23.7
2022-09-23T00:35:26.885Z,23.7
2022-09-23T00:40:45.582Z,23.7
2022-09-23T00:46:03.861Z,23.7
2022-09-23T00:51:21.947Z,23.7
2022-09-23T00:56:40.729Z,23.6
2022-09-23T01:01:59.425Z,23.7
2022-09-23T01:07:17.698Z,23.6
2022-09-23T01:12:35.925Z,23.6
2022-09-23T01:17:54.175Z,23.6
2022-09-23T01:23:12.927Z,23.6
2022-09-23T01:28:31.718Z,23.6
2022-09-23T01:33:50.447Z,23.6
2022-09-23T01:39:08.934Z,23.6
2022-09-23T01:44:27.270Z,23.6
2022-09-23T01:49:46.006Z,23.6
2022-09-23T01:55:04.483Z,23.6
2022-09-23T02:00:23.334Z,23.6
2022-09-23T02:05:41.836Z,23.6
2022-09-23T02:11:00.614Z,23.6
2022-09-23T02:16:19.506Z,23.6
2022-09-23T02:21:38.207Z,23.6
2022-09-23T02:26:56.694Z,23.6
2022-09-23T02:32:15.668Z,23.6
2022-09-23T02:37:33.569Z,23.5
2022-09-23T02:42:52.054Z,23.5
2022-09-23T02:48:10.350Z,23.5
2022-09-23T02:53:28.574Z,23.5
2022-09-23T02:58:47.063Z,23.5
2022-09-23T03:04:05.011Z,23.5
2022-09-23T03:09:23.203Z,23.5
2022-09-23T03:14:41.685Z,23.5
2022-09-23T03:20:00.222Z,23.5
2022-09-23T03:25:18.125Z,23.5
2022-09-23T03:30:36.891Z,23.5
2022-09-23T03:35:55.391Z,23.5
2022-09-23T03:41:13.563Z,23.5
2022-09-23T03:46:32.044Z,23.5
2022-09-23T03:51:50.276Z,23.5
2022-09-23T03:57:08.452Z,23.5
2022-09-23T04:02:26.922Z,23.5
2022-09-23T04:07:45.489Z,23.5
2022-09-23T04:13:03.406Z,23.5
2022-09-23T04:18:22.159Z,23.5
2022-09-23T04:23:40.739Z,23.5
2022-09-23T04:28:59.296Z,23.5
2022-09-23T04:34:17.549Z,23.5
2022-09-23T04:39:36.049Z,23.5
2022-09-23T04:44:54.242Z,23.5
2022-09-23T04:50:12.718Z,23.5
2022-09-23T04:55:31.509Z,23.4
2022-09-23T05:00:50.318Z,23.4
2022-09-23T05:05:54.881Z,23.4
2022-09-23T05:11:13.386Z,23.4
2022-09-23T05:16:31.926Z,23.4
2022-09-23T05:21:50.006Z,23.4
2022-09-23T05:27:08.233Z,23.4
2022-09-23T05:32:26.964Z,23.4
2022-09-23T05:37:45.476Z,23.4
2022-09-23T05:43:03.696Z,23.4
2022-09-23T05:48:22.161Z,23.4
2022-09-23T05:53:40.646Z,23.4
2022-09-23T05:58:58.600Z,23.4
2022-09-23T06:04:17.059Z,23.4
2022-09-23T06:09:37.045Z,23.4
2022-09-23T06:14:55.812Z,23.4
2022-09-23T06:20:14.307Z,23.5
2022-09-23T06:25:32.562Z,23.4
2022-09-23T06:30:50.801Z,23.4
2022-09-23T06:36:09.264Z,23.5
2022-09-23T06:41:27.461Z,23.5
2022-09-23T06:46:45.834Z,23.5
2022-09-23T06:52:04.225Z,23.5
2022-09-23T06:57:22.427Z,23.5
2022-09-23T07:02:40.999Z,23.5
2022-09-23T07:07:59.720Z,23.5
2022-09-23T07:13:18.223Z,23.6
2022-09-23T07:18:37.612Z,23.6
2022-09-23T07:23:56.192Z,23.7
2022-09-23T07:29:14.665Z,23.7
2022-09-23T07:34:33.488Z,23.7
2022-09-23T07:39:51.946Z,23.7
2022-09-23T07:45:10.716Z,23.8
2022-09-23T07:50:29.502Z,23.8
2022-09-23T07:55:47.971Z,23.8
2022-09-23T08:01:06.008Z,23.8
2022-09-23T08:06:24.410Z,23.8
2022-09-23T08:11:43.142Z,23.9
2022-09-23T08:17:01.905Z,23.9
2022-09-23T08:22:20.150Z,23.9
2022-09-23T08:27:38.387Z,23.9
2022-09-23T08:32:56.590Z,23.9
2022-09-23T08:38:14.833Z,24
2022-09-23T08:43:33.302Z,24
2022-09-23T08:48:51.505Z,24
2022-09-23T08:54:10.316Z,24
2022-09-23T08:59:29.069Z,24
2022-09-23T09:04:47.546Z,24.1
2022-09-23T09:10:05.785Z,24.1
2022-09-23T09:15:25.466Z,24.1
2022-09-23T09:20:43.936Z,24.1
2022-09-23T09:26:02.431Z,24.2
2022-09-23T09:31:21.044Z,24.2
2022-09-23T09:36:39.709Z,24.2
2022-09-23T09:41:58.096Z,24.2
2022-09-23T09:47:16.618Z,24.2
2022-09-23T09:52:38.130Z,24.3
2022-09-23T09:57:56.086Z,24.3
2022-09-23T10:03:14.570Z,24.3
2022-09-23T10:08:32.494Z,24.3
2022-09-23T10:13:50.722Z,24.3
2022-09-23T10:19:08.889Z,24.3
2022-09-23T10:24:27.430Z,24.3
2022-09-23T10:29:45.953Z,24.4
2022-09-23T10:35:04.412Z,24.4
2022-09-23T10:40:22.808Z,24.4
2022-09-23T10:45:43.575Z,24.4
2022-09-23T10:51:02.015Z,24.4
2022-09-23T10:56:20.495Z,24.4
2022-09-23T11:01:39.393Z,24.4
2022-09-23T11:06:57.860Z,24.4
2022-09-23T11:12:16.622Z,24.4
2022-09-23T11:17:35.129Z,24.4
2022-09-23T11:22:53.725Z,24.4
2022-09-23T11:28:12.212Z,24.4
2022-09-23T11:33:30.438Z,24.4
2022-09-23T11:38:48.909Z,24.4
2022-09-23T11:44:07.358Z,24.4
2022-09-23T11:49:25.442Z,24.4
2022-09-23T11:54:43.619Z,24.4
2022-09-23T12:00:01.543Z,24.4
2022-09-23T12:05:20.087Z,24.3
2022-09-23T12:10:38.528Z,24.3
2022-09-23T12:15:56.750Z,24.3
2022-09-23T12:21:50.086Z,24.3
2022-09-23T12:27:09.683Z,24.3
2022-09-23T12:32:28.178Z,24.3
2022-09-23T12:37:46.845Z,24.3
2022-09-23T12:43:05.018Z,24.2
2022-09-23T12:48:23.495Z,24.2
2022-09-23T12:53:42.300Z,24.2
2022-09-23T12:59:00.761Z,24.2
2022-09-23T13:04:19.234Z,24.2
2022-09-23T13:09:38.044Z,24.2
2022-09-23T13:14:56.492Z,24.2
2022-09-23T13:20:14.686Z,24.2
2022-09-23T13:25:33.199Z,24.2
2022-09-23T13:30:51.685Z,24.1
2022-09-23T13:36:10.249Z,24.1
2022-09-23T13:41:28.756Z,24.1
2022-09-23T13:46:46.926Z,24.1
2022-09-23T13:52:05.699Z,24.1
2022-09-23T13:57:24.349Z,24.1
2022-09-23T14:02:42.967Z,24.1
2022-09-23T14:08:01.351Z,24.1
2022-09-23T14:13:26.211Z,24.1
2022-09-23T14:18:44.707Z,24.1
2022-09-23T14:24:03.590Z,24
2022-09-23T14:29:21.825Z,24
2022-09-23T14:34:40.302Z,24
2022-09-23T14:39:58.564Z,24
2022-09-23T14:45:17.440Z,24
2022-09-23T14:50:36.275Z,24
2022-09-23T14:55:54.760Z,24
2022-09-23T15:01:13.316Z,24
2022-09-23T15:06:31.757Z,24
2022-09-23T15:11:50.508Z,24
2022-09-23T15:17:09.059Z,24
2022-09-23T15:22:27.531Z,24
2022-09-23T15:27:46.012Z,24
2022-09-23T15:33:04.540Z,23.9
2022-09-23T15:38:22.715Z,23.9
2022-09-23T15:43:41.214Z,23.9
2022-09-23T15:49:00.005Z,23.9
2022-09-23T15:54:18.833Z,23.9
2022-09-23T15:59:37.619Z,23.9
2022-09-23T16:04:56.123Z,23.9
2022-09-23T16:10:14.859Z,23.9
2022-09-23T16:15:33.067Z,23.8
2022-09-23T16:20:51.003Z,23.8
2022-09-23T16:26:09.472Z,23.8
2022-09-23T16:31:28.276Z,23.8
2022-09-23T16:36:46.350Z,23.8
2022-09-23T16:42:04.816Z,23.8
2022-09-23T16:47:23.300Z,23.8
2022-09-23T16:52:41.956Z,23.8
2022-09-23T16:58:00.397Z,23.8
2022-09-23T17:03:18.604Z,23.8
2022-09-23T17:08:36.549Z,23.8
2022-09-23T17:13:55.017Z,23.8
2022-09-23T17:19:13.788Z,23.7
2022-09-23T17:24:32.306Z,23.7
2022-09-23T17:29:50.764Z,23.7
2022-09-23T17:35:09.257Z,23.7
2022-09-23T17:40:28.264Z,23.7
2022-09-23T17:45:46.389Z,23.7
2022-09-23T17:51:04.915Z,23.7
2022-09-23T17:56:23.483Z,23.7
2022-09-23T18:01:41.647Z,23.7
2022-09-23T18:07:00.604Z,23.7
2022-09-23T18:12:19.400Z,23.7
2022-09-23T18:17:37.571Z,23.7
2022-09-23T18:22:56.342Z,23.7
2022-09-23T18:28:15.134Z,23.6
2022-09-23T18:33:33.863Z,23.6
2022-09-23T18:38:52.071Z,23.6
2022-09-23T18:44:10.717Z,23.6
2022-09-23T18:49:29.363Z,23.6
2022-09-23T18:54:54.297Z,23.6
2022-09-23T19:00:13.503Z,23.6
2022-09-23T19:05:31.968Z,23.6
2022-09-23T19:10:50.461Z,23.6
2022-09-23T19:16:09.147Z,23.6
2022-09-23T19:21:27.189Z,23.6
2022-09-23T19:26:45.669Z,23.6
2022-09-23T19:32:04.046Z,23.6
2022-09-23T19:37:22.516Z,23.6
2022-09-23T19:42:40.990Z,23.6
2022-09-23T19:47:59.499Z,23.5
2022-09-23T19:53:17.952Z,23.5
2022-09-23T19:58:36.710Z,23.5
2022-09-23T20:03:55.503Z,23.5
2022-09-23T20:09:13.414Z,23.5
2022-09-23T20:14:31.613Z,23.5
2022-09-23T20:19:49.847Z,23.5
2022-09-23T20:25:08.041Z,23.5
2022-09-23T20:30:26.511Z,23.5
2022-09-23T20:35:44.750Z,23.5
2022-09-23T20:41:03.491Z,23.5
2022-09-23T20:46:22.253Z,23.5
2022-09-23T20:51:41.091Z,23.5
2022-09-23T20:56:59.832Z,23.5
2022-09-23T21:02:18.276Z,23.5
2022-09-23T21:07:36.757Z,23.5
2022-09-23T21:12:55.497Z,23.5
2022-09-23T21:18:21.801Z,23.5
2022-09-23T21:23:41.212Z,23.5
2022-09-23T21:28:59.391Z,23.5
2022-09-23T21:34:17.882Z,23.5
2022-09-23T21:39:36.678Z,23.5
2022-09-23T21:44:55.361Z,23.5
2022-09-23T21:50:13.840Z,23.5
2022-09-23T21:55:32.071Z,23.5
2022-09-23T22:00:50.833Z,23.5
2022-09-23T22:06:09.227Z,23.4
2022-09-23T22:11:27.531Z,23.4
2022-09-23T22:16:45.990Z,23.4
2022-09-23T22:22:04.478Z,23.4
2022-09-23T22:27:23.007Z,23.4
2022-09-23T22:32:41.485Z,23.4
2022-09-23T22:37:59.835Z,23.4
2022-09-23T22:43:18.346Z,23.4
2022-09-23T22:48:36.799Z,23.4
2022-09-23T22:53:55.292Z,23.4
2022-09-23T22:59:13.632Z,23.4
2022-09-23T23:04:31.807Z,23.4
2022-09-23T23:09:50.013Z,23.4
2022-09-23T23:15:08.275Z,23.4
2022-09-23T23:20:26.448Z,23.4
2022-09-23T23:25:45.210Z,23.4
2022-09-23T23:31:03.953Z,23.4
2022-09-23T23:36:22.558Z,23.4
2022-09-23T23:41:41.043Z,23.3
2022-09-23T23:46:59.430Z,23.3
2022-09-23T23:52:18.038Z,23.3
2022-09-23T23:57:36.530Z,23.3
